createdAt,value
2018-11-02T00:01:36.145Z,6.27
2018-11-02T00:04:05.244Z,7.27
2018-11-02T00:06:33.969Z,5.87
2018-11-02T00:09:02.549Z,10.53
2018-11-02T00:11:31.051Z,9.40
2018-11-02T00:13:59.355Z,7.40
2018-11-02T00:16:28.001Z,6.27
2018-11-02T00:18:56.493Z,6.47
2018-11-02T00:21:24.841Z,9.70
2018-11-02T00:23:53.429Z,5.60
2018-11-02T00:26:21.937Z,7.87
2018-11-02T00:28:50.301Z,8.07
2018-11-02T00:31:18.938Z,7.30
2018-11-02T00:33:47.597Z,4.90
2018-11-02T00:36:16.670Z,3.93
2018-11-02T00:38:45.337Z,10.70
2018-11-02T00:41:14.363Z,5.63
2018-11-02T00:43:42.685Z,8.47
2018-11-02T00:46:11.465Z,3.80
2018-11-02T00:48:39.980Z,5.50
2018-11-02T00:51:08.474Z,6.57
2018-11-02T00:53:37.054Z,4.90
2018-11-02T00:56:06.165Z,4.53
2018-11-02T00:58:34.479Z,4.10
2018-11-02T01:01:03.113Z,7.97
2018-11-02T01:03:31.515Z,6.20
2018-11-02T01:05:59.853Z,6.57
2018-11-02T01:08:28.332Z,5.90
2018-11-02T01:10:57.765Z,3.63
2018-11-02T01:13:26.096Z,5.87
2018-11-02T01:15:54.517Z,4.90
2018-11-02T01:18:25.345Z,3.50
2018-11-02T01:20:53.682Z,4.47
2018-11-02T01:23:22.305Z,7.13
2018-11-02T01:25:50.628Z,6.63
2018-11-02T01:28:18.956Z,5.93
2018-11-02T01:30:47.739Z,4.23
2018-11-02T01:33:16.278Z,3.07
2018-11-02T01:35:44.592Z,6.10
2018-11-02T01:38:12.992Z,7.23
2018-11-02T01:40:41.567Z,4.73
2018-11-02T01:43:10.042Z,5.27
2018-11-02T01:45:38.544Z,5.20
2018-11-02T01:48:07.133Z,6.60
2018-11-02T01:50:35.636Z,5.50
2018-11-02T01:53:04.135Z,8.93
2018-11-02T01:55:32.591Z,4.87
2018-11-02T01:58:00.921Z,6.83
2018-11-02T02:00:30.064Z,4.90
2018-11-02T02:02:58.435Z,6.87
2018-11-02T02:05:26.796Z,4.00
2018-11-02T02:07:55.365Z,5.10
2018-11-02T02:10:23.678Z,5.93
2018-11-02T02:12:52.744Z,3.30
2018-11-02T02:15:21.898Z,4.77
2018-11-02T02:17:50.259Z,6.57
2018-11-02T02:20:18.580Z,6.30
2018-11-02T02:22:47.059Z,4.40
2018-11-02T02:25:15.485Z,5.10
2018-11-02T02:27:43.814Z,5.77
2018-11-02T02:30:13.749Z,9.83
2018-11-02T02:32:42.621Z,7.23
2018-11-02T02:35:11.417Z,2.17
2018-11-02T02:37:40.892Z,3.57
2018-11-02T02:40:11.856Z,3.27
2018-11-02T02:42:40.916Z,7.73
2018-11-02T02:45:10.569Z,3.87
2018-11-02T02:47:39.365Z,8.37
2018-11-02T02:50:09.598Z,6.80
2018-11-02T02:52:37.955Z,4.23
2018-11-02T02:55:06.848Z,7.90
2018-11-02T02:57:35.429Z,4.13
2018-11-02T03:00:09.813Z,4.90
2018-11-02T03:02:43.247Z,5.50
2018-11-02T03:05:11.976Z,7.17
2018-11-02T03:07:41.002Z,5.63
2018-11-02T03:10:09.708Z,6.20
2018-11-02T03:12:38.596Z,3.60
2018-11-02T03:15:07.376Z,3.73
2018-11-02T03:17:36.084Z,3.67
2018-11-02T03:20:06.424Z,5.17
2018-11-02T03:22:34.931Z,6.30
2018-11-02T03:25:03.204Z,5.73
2018-11-02T03:27:31.936Z,4.20
2018-11-02T03:30:00.255Z,6.77
2018-11-02T03:32:29.332Z,4.57
2018-11-02T03:34:58.032Z,3.73
2018-11-02T03:37:26.383Z,5.20
2018-11-02T03:39:54.902Z,5.50
2018-11-02T03:42:23.260Z,5.77
2018-11-02T03:44:51.573Z,9.67
2018-11-02T03:47:20.028Z,6.00
2018-11-02T03:49:48.468Z,8.00
2018-11-02T03:52:16.824Z,4.97
2018-11-02T03:54:45.492Z,6.47
2018-11-02T03:57:14.116Z,5.40
2018-11-02T03:59:42.455Z,5.13
2018-11-02T04:02:10.932Z,4.07
2018-11-02T04:04:39.291Z,4.63
2018-11-02T04:07:07.613Z,4.43
2018-11-02T04:09:36.371Z,8.10
2018-11-02T04:12:05.079Z,5.07
2018-11-02T04:14:33.412Z,4.83
2018-11-02T04:17:01.867Z,3.90
2018-11-02T04:19:30.259Z,6.53
2018-11-02T04:21:58.556Z,3.83
2018-11-02T04:24:27.063Z,4.90
2018-11-02T04:26:55.682Z,6.33
2018-11-02T04:29:24.202Z,4.80
2018-11-02T04:31:52.606Z,4.43
2018-11-02T04:34:21.182Z,2.83
2018-11-02T04:36:49.470Z,6.53
2018-11-02T04:39:18.117Z,7.43
2018-11-02T04:41:48.041Z,3.50
2018-11-02T04:44:16.389Z,4.20
2018-11-02T04:46:44.774Z,4.67
2018-11-02T04:49:13.900Z,5.53
2018-11-02T04:51:42.229Z,3.60
2018-11-02T04:54:10.678Z,3.57
2018-11-02T04:56:39.191Z,5.30
2018-11-02T04:59:07.477Z,4.13
2018-11-02T05:01:35.909Z,5.27
2018-11-02T05:04:04.733Z,6.73
2018-11-02T05:06:33.049Z,6.37
2018-11-02T05:09:01.733Z,4.50
2018-11-02T05:11:30.198Z,7.33
2018-11-02T05:13:58.572Z,4.10
2018-11-02T05:16:27.020Z,4.70
2018-11-02T05:18:55.359Z,4.87
2018-11-02T05:21:23.830Z,5.33
2018-11-02T05:23:52.480Z,6.17
2018-11-02T05:26:21.085Z,3.97
2018-11-02T05:28:49.387Z,9.90
2018-11-02T05:31:18.056Z,5.70
2018-11-02T05:33:46.446Z,4.13
2018-11-02T05:36:14.752Z,7.47
2018-11-02T05:38:43.292Z,2.70
2018-11-02T05:41:11.645Z,4.47
2018-11-02T05:43:39.948Z,3.57
2018-11-02T05:46:08.363Z,5.07
2018-11-02T05:48:37.054Z,4.73
2018-11-02T05:51:05.422Z,5.07
2018-11-02T05:53:33.998Z,3.93
2018-11-02T05:56:02.640Z,7.27
2018-11-02T05:58:30.954Z,7.07
2018-11-02T06:00:59.285Z,4.00
2018-11-02T06:03:27.872Z,3.50
2018-11-02T06:05:56.308Z,11.13
2018-11-02T06:08:25.545Z,5.03
2018-11-02T06:10:54.135Z,7.23
2018-11-02T06:13:22.490Z,2.83
2018-11-02T06:15:50.992Z,5.00
2018-11-02T06:18:19.774Z,2.67
2018-11-02T06:20:48.098Z,3.43
2018-11-02T06:23:16.482Z,5.03
2018-11-02T06:25:45.221Z,5.40
2018-11-02T06:28:13.550Z,5.53
2018-11-02T06:30:42.323Z,4.87
2018-11-02T06:33:11.312Z,3.53
2018-11-02T06:35:39.683Z,2.27
2018-11-02T06:38:08.090Z,5.30
2018-11-02T06:40:36.858Z,4.53
2018-11-02T06:43:05.492Z,4.47
2018-11-02T06:45:33.846Z,2.80
2018-11-02T06:48:02.361Z,5.13
2018-11-02T06:50:30.718Z,6.23
2018-11-02T06:52:59.422Z,3.23
2018-11-02T06:55:27.998Z,3.73
2018-11-02T06:57:56.427Z,3.60
2018-11-02T07:00:25.550Z,5.03
2018-11-02T07:02:53.972Z,3.63
2018-11-02T07:05:27.969Z,4.33
2018-11-02T07:07:56.999Z,4.40
2018-11-02T07:10:25.592Z,4.30
2018-11-02T07:12:55.075Z,3.90
2018-11-02T07:15:23.754Z,3.87
2018-11-02T07:17:52.157Z,2.40
2018-11-02T07:20:20.659Z,4.43
2018-11-02T07:22:49.590Z,3.17
2018-11-02T07:25:18.003Z,2.60
2018-11-02T07:27:47.285Z,4.57
2018-11-02T07:30:16.314Z,3.90
2018-11-02T07:32:45.753Z,2.83
2018-11-02T07:35:14.370Z,3.20
2018-11-02T07:37:43.444Z,4.93
2018-11-02T07:40:14.391Z,4.60
2018-11-02T07:42:43.019Z,4.13
2018-11-02T07:45:11.620Z,4.60
2018-11-02T07:47:41.030Z,3.57
2018-11-02T07:50:10.857Z,6.37
2018-11-02T07:52:39.810Z,3.40
2018-11-02T07:55:10.237Z,5.47
2018-11-02T07:57:39.028Z,4.27
2018-11-02T08:00:17.606Z,3.10
2018-11-02T08:02:47.484Z,3.43
2018-11-02T08:05:16.545Z,6.57
2018-11-02T08:07:45.292Z,3.73
2018-11-02T08:10:13.862Z,2.23
2018-11-02T08:12:42.548Z,4.13
2018-11-02T08:15:12.189Z,4.70
2018-11-02T08:17:41.477Z,4.23
2018-11-02T08:20:11.417Z,5.37
2018-11-02T08:22:40.207Z,5.40
2018-11-02T08:25:09.817Z,1.90
2018-11-02T08:27:38.354Z,3.43
2018-11-02T08:30:08.206Z,4.33
2018-11-02T08:32:36.796Z,5.20
2018-11-02T08:35:07.029Z,2.80
2018-11-02T08:37:35.807Z,2.87
2018-11-02T08:40:04.479Z,4.80
2018-11-02T08:42:41.299Z,2.77
2018-11-02T08:45:14.116Z,3.27
2018-11-02T08:47:42.975Z,6.13
2018-11-02T08:50:12.085Z,4.40
2018-11-02T08:52:40.845Z,2.50
2018-11-02T08:55:09.821Z,4.40
2018-11-02T08:57:38.757Z,4.37
2018-11-02T09:00:18.681Z,6.07
2018-11-02T09:02:47.100Z,4.97
2018-11-02T09:05:16.203Z,6.63
2018-11-02T09:07:45.001Z,5.50
2018-11-02T09:10:13.317Z,4.33
2018-11-02T09:12:41.644Z,7.37
2018-11-02T09:15:10.088Z,3.37
2018-11-02T09:17:38.389Z,3.67
2018-11-02T09:20:06.743Z,2.97
2018-11-02T09:22:35.265Z,3.20
2018-11-02T09:25:03.579Z,1.67
2018-11-02T09:27:31.997Z,3.83
2018-11-02T09:30:00.562Z,2.90
2018-11-02T09:32:28.940Z,3.93
2018-11-02T09:34:57.356Z,3.13
2018-11-02T09:37:25.867Z,1.37
2018-11-02T09:39:54.182Z,3.57
2018-11-02T09:42:22.556Z,3.80
2018-11-02T09:44:51.212Z,1.30
2018-11-02T09:47:19.536Z,3.47
2018-11-02T09:49:47.904Z,2.77
2018-11-02T09:52:16.614Z,2.67
2018-11-02T09:54:44.961Z,3.63
2018-11-02T09:57:13.306Z,3.43
2018-11-02T09:59:42.056Z,3.60
2018-11-02T10:02:10.446Z,0.97
2018-11-02T10:04:38.710Z,2.13
2018-11-02T10:07:07.380Z,2.60
2018-11-02T10:09:35.743Z,3.60
2018-11-02T10:12:04.457Z,4.40
2018-11-02T10:14:33.283Z,5.43
2018-11-02T10:17:01.933Z,3.03
2018-11-02T10:19:30.593Z,1.83
2018-11-02T10:21:59.577Z,2.03
2018-11-02T10:24:28.216Z,3.83
2018-11-02T10:26:56.925Z,3.53
2018-11-02T10:29:26.003Z,6.07
2018-11-02T10:31:54.578Z,2.67
2018-11-02T10:34:23.046Z,3.33
2018-11-02T10:36:51.593Z,2.10
2018-11-02T10:39:19.995Z,3.53
2018-11-02T10:41:52.873Z,2.53
2018-11-02T10:44:26.434Z,2.37
2018-11-02T10:46:55.041Z,1.70
2018-11-02T10:49:23.494Z,3.40
2018-11-02T10:51:51.939Z,2.67
2018-11-02T10:54:20.380Z,2.50
2018-11-02T10:56:48.714Z,3.07
2018-11-02T10:59:17.247Z,2.23
2018-11-02T11:01:51.245Z,1.87
2018-11-02T11:04:20.081Z,4.53
2018-11-02T11:06:48.450Z,3.20
2018-11-02T11:09:17.140Z,2.27
2018-11-02T11:11:45.731Z,2.10
2018-11-02T11:14:13.849Z,2.67
2018-11-02T11:16:42.372Z,2.23
2018-11-02T11:19:11.692Z,1.43
2018-11-02T11:21:41.058Z,0.80
2018-11-02T11:24:09.576Z,2.63
2018-11-02T11:26:38.655Z,1.00
2018-11-02T11:29:08.505Z,1.40
2018-11-02T11:31:37.455Z,2.00
2018-11-02T11:34:06.762Z,1.20
2018-11-02T11:36:35.147Z,3.90
2018-11-02T11:39:05.049Z,1.43
2018-11-02T11:41:33.403Z,2.37
2018-11-02T11:44:02.004Z,3.10
2018-11-02T11:46:30.431Z,1.00
2018-11-02T11:48:59.036Z,2.50
2018-11-02T11:51:27.259Z,2.30
2018-11-02T11:53:55.753Z,1.53
2018-11-02T11:56:24.096Z,1.03
2018-11-02T11:58:52.447Z,2.37
2018-11-02T12:01:21.176Z,2.50
2018-11-02T12:03:49.583Z,2.93
2018-11-02T12:06:17.976Z,1.53
2018-11-02T12:08:46.578Z,0.73
2018-11-02T12:11:15.969Z,2.43
2018-11-02T12:13:44.296Z,3.40
2018-11-02T12:16:12.816Z,2.73
2018-11-02T12:18:41.834Z,1.37
2018-11-02T12:21:10.185Z,3.47
2018-11-02T12:23:38.754Z,3.80
2018-11-02T12:26:07.120Z,1.33
2018-11-02T12:28:35.514Z,3.20
2018-11-02T12:31:04.246Z,2.97
2018-11-02T12:33:32.564Z,2.20
2018-11-02T12:36:00.920Z,2.00
2018-11-02T12:38:29.312Z,4.03
2018-11-02T12:40:57.741Z,4.33
2018-11-02T12:43:26.189Z,3.10
2018-11-02T12:45:54.736Z,0.60
2018-11-02T12:48:23.153Z,3.23
2018-11-02T12:50:51.414Z,2.93
2018-11-02T12:53:19.993Z,2.57
2018-11-02T12:55:48.401Z,1.37
2018-11-02T12:58:16.748Z,3.20
2018-11-02T13:00:45.786Z,3.47
2018-11-02T13:03:14.191Z,3.43
2018-11-02T13:05:42.668Z,2.73
2018-11-02T13:08:11.173Z,5.93
2018-11-02T13:10:39.568Z,1.43
2018-11-02T13:13:07.977Z,1.43
2018-11-02T13:15:36.559Z,3.07
2018-11-02T13:18:05.225Z,1.60
2018-11-02T13:20:33.806Z,1.73
2018-11-02T13:23:02.405Z,1.43
2018-11-02T13:25:30.898Z,3.53
2018-11-02T13:27:59.205Z,4.27
2018-11-02T13:30:27.855Z,2.97
2018-11-02T13:32:56.127Z,1.73
2018-11-02T13:35:24.492Z,1.77
2018-11-02T13:37:52.951Z,2.70
2018-11-02T13:40:21.454Z,2.80
2018-11-02T13:42:49.925Z,3.27
2018-11-02T13:45:18.792Z,2.20
2018-11-02T13:47:47.192Z,2.40
2018-11-02T13:50:15.571Z,1.57
2018-11-02T13:52:44.587Z,2.13
2018-11-02T13:55:13.303Z,2.97
2018-11-02T13:57:41.811Z,1.93
2018-11-02T14:00:17.935Z,3.90
2018-11-02T14:02:46.297Z,4.23
2018-11-02T14:05:15.627Z,3.70
2018-11-02T14:07:44.259Z,1.23
2018-11-02T14:10:13.055Z,2.97
2018-11-02T14:12:41.747Z,3.93
2018-11-02T14:15:14.341Z,1.33
2018-11-02T14:17:43.121Z,5.17
2018-11-02T14:20:12.355Z,2.13
2018-11-02T14:22:40.884Z,2.03
2018-11-02T14:25:11.704Z,2.67
2018-11-02T14:27:40.106Z,2.47
2018-11-02T14:30:11.548Z,1.23
2018-11-02T14:32:39.873Z,1.73
2018-11-02T14:35:08.350Z,0.80
2018-11-02T14:37:38.259Z,3.33
2018-11-02T14:40:07.654Z,3.53
2018-11-02T14:42:36.385Z,2.70
2018-11-02T14:45:05.432Z,1.70
2018-11-02T14:47:33.781Z,2.23
2018-11-02T14:50:02.303Z,1.87
2018-11-02T14:52:30.842Z,3.63
2018-11-02T14:54:59.197Z,9.50
2018-11-02T14:57:27.715Z,4.17
2018-11-02T14:59:56.513Z,3.90
2018-11-02T15:02:24.818Z,3.77
2018-11-02T15:04:53.378Z,2.93
2018-11-02T15:07:21.785Z,2.77
2018-11-02T15:09:50.118Z,1.73
2018-11-02T15:12:18.477Z,1.93
2018-11-02T15:14:47.187Z,4.23
2018-11-02T15:17:15.809Z,3.47
2018-11-02T15:19:44.716Z,2.13
2018-11-02T15:22:13.238Z,1.37
2018-11-02T15:24:41.545Z,3.13
2018-11-02T15:27:10.126Z,2.77
2018-11-02T15:29:38.620Z,2.07
2018-11-02T15:32:07.035Z,2.30
2018-11-02T15:34:36.378Z,2.03
2018-11-02T15:37:04.806Z,2.77
2018-11-02T15:39:33.165Z,4.83
2018-11-02T15:42:01.671Z,2.87
2018-11-02T15:44:30.081Z,3.27
2018-11-02T15:46:58.663Z,2.17
2018-11-02T15:49:26.993Z,4.20
2018-11-02T15:51:55.316Z,1.83
2018-11-02T15:54:23.788Z,2.07
2018-11-02T15:56:52.239Z,3.43
2018-11-02T15:59:20.550Z,2.20
2018-11-02T16:01:48.876Z,2.17
2018-11-02T16:04:17.369Z,1.83
2018-11-02T16:06:45.754Z,3.80
2018-11-02T16:09:15.980Z,1.97
2018-11-02T16:11:45.342Z,4.23
2018-11-02T16:14:13.984Z,3.43
2018-11-02T16:16:42.644Z,2.97
2018-11-02T16:19:11.292Z,1.77
2018-11-02T16:21:39.757Z,2.60
2018-11-02T16:24:09.468Z,3.07
2018-11-02T16:26:37.894Z,2.70
2018-11-02T16:29:06.360Z,3.37
2018-11-02T16:31:34.825Z,3.70
2018-11-02T16:34:03.271Z,3.37
2018-11-02T16:36:31.612Z,1.70
2018-11-02T16:39:00.050Z,3.40
2018-11-02T16:41:28.552Z,4.07
2018-11-02T16:43:56.956Z,2.63
2018-11-02T16:46:25.291Z,3.70
2018-11-02T16:48:53.703Z,3.27
2018-11-02T16:51:22.296Z,2.03
2018-11-02T16:53:50.804Z,4.63
2018-11-02T16:56:19.441Z,4.17
2018-11-02T16:58:47.786Z,3.33
2018-11-02T17:01:16.393Z,2.53
2018-11-02T17:03:45.475Z,4.03
2018-11-02T17:06:13.989Z,2.83
2018-11-02T17:08:42.203Z,3.47
2018-11-02T17:11:10.727Z,2.43
2018-11-02T17:13:39.081Z,3.93
2018-11-02T17:16:07.602Z,2.73
2018-11-02T17:18:36.112Z,3.50
2018-11-02T17:21:04.593Z,3.87
2018-11-02T17:23:33.145Z,4.13
2018-11-02T17:26:01.731Z,4.00
2018-11-02T17:28:30.131Z,3.57
2018-11-02T17:30:58.574Z,2.53
2018-11-02T17:33:27.051Z,3.17
2018-11-02T17:35:55.435Z,4.67
2018-11-02T17:38:23.924Z,3.10
2018-11-02T17:40:52.453Z,3.57
2018-11-02T17:43:20.781Z,2.93
2018-11-02T17:45:50.529Z,4.10
2018-11-02T17:48:19.070Z,3.63
2018-11-02T17:50:47.421Z,3.00
2018-11-02T17:53:15.864Z,2.50
2018-11-02T17:55:44.374Z,5.90
2018-11-02T17:58:12.722Z,3.50
2018-11-02T18:00:41.143Z,3.10
2018-11-02T18:03:09.540Z,5.33
2018-11-02T18:05:37.900Z,6.47
2018-11-02T18:08:06.446Z,5.00
2018-11-02T18:10:34.789Z,5.50
2018-11-02T18:13:03.116Z,6.53
2018-11-02T18:15:31.679Z,5.73
2018-11-02T18:18:00.145Z,6.47
2018-11-02T18:20:28.466Z,8.67
2018-11-02T18:22:57.101Z,10.17
2018-11-02T18:25:25.526Z,10.00
2018-11-02T18:27:53.906Z,7.67
2018-11-02T18:30:22.498Z,8.20
2018-11-02T18:32:50.986Z,6.80
2018-11-02T18:35:19.369Z,5.67
2018-11-02T18:37:47.989Z,3.60
2018-11-02T18:40:16.436Z,3.47
2018-11-02T18:42:44.777Z,6.03
2018-11-02T18:45:14.404Z,6.53
2018-11-02T18:47:48.193Z,5.10
2018-11-02T18:50:17.828Z,5.60
2018-11-02T18:52:46.728Z,9.23
2018-11-02T18:55:15.139Z,5.90
2018-11-02T18:57:43.634Z,8.30
2018-11-02T19:00:14.719Z,7.87
2018-11-02T19:02:43.134Z,8.57
2018-11-02T19:05:13.834Z,6.37
2018-11-02T19:07:42.453Z,4.13
2018-11-02T19:10:11.526Z,4.73
2018-11-02T19:12:40.538Z,5.60
2018-11-02T19:15:11.067Z,6.57
2018-11-02T19:17:39.593Z,4.00
2018-11-02T19:20:08.410Z,5.93
2018-11-02T19:22:36.813Z,4.50
2018-11-02T19:25:06.029Z,3.90
2018-11-02T19:27:34.707Z,5.67
2018-11-02T19:30:03.061Z,4.23
2018-11-02T19:32:31.585Z,4.17
2018-11-02T19:35:01.000Z,5.27
2018-11-02T19:37:29.707Z,5.40
2018-11-02T19:39:58.492Z,3.70
2018-11-02T19:42:28.847Z,3.83
2018-11-02T19:44:57.813Z,3.97
2018-11-02T19:47:31.737Z,3.33
2018-11-02T19:50:00.237Z,3.97
2018-11-02T19:52:29.539Z,4.77
2018-11-02T19:54:58.351Z,4.47
2018-11-02T19:57:27.278Z,6.07
2018-11-02T19:59:55.654Z,5.37
2018-11-02T20:02:24.079Z,5.13
2018-11-02T20:04:52.662Z,4.27
2018-11-02T20:07:21.083Z,5.87
2018-11-02T20:09:49.903Z,7.03
2018-11-02T20:12:18.703Z,5.47
2018-11-02T20:14:47.104Z,5.10
2018-11-02T20:17:15.561Z,5.77
2018-11-02T20:19:44.193Z,4.13
2018-11-02T20:22:12.684Z,6.37
2018-11-02T20:24:41.271Z,5.83
2018-11-02T20:27:10.798Z,6.50
2018-11-02T20:29:39.282Z,6.00
2018-11-02T20:32:07.967Z,4.43
2018-11-02T20:34:36.569Z,6.30
2018-11-02T20:37:05.102Z,7.40
2018-11-02T20:39:33.840Z,4.20
2018-11-02T20:42:02.329Z,6.37
2018-11-02T20:44:30.762Z,5.23
2018-11-02T20:46:59.526Z,3.83
2018-11-02T20:49:28.248Z,3.73
2018-11-02T20:51:56.658Z,3.60
2018-11-02T20:54:26.429Z,4.63
2018-11-02T20:56:55.375Z,4.13
2018-11-02T20:59:23.788Z,5.80
2018-11-02T21:01:52.324Z,5.50
2018-11-02T21:04:21.066Z,5.13
2018-11-02T21:06:49.505Z,7.77
2018-11-02T21:09:18.415Z,7.50
2018-11-02T21:11:46.753Z,7.43
2018-11-02T21:14:15.278Z,9.87
2018-11-02T21:16:43.735Z,7.17
2018-11-02T21:19:12.317Z,6.63
2018-11-02T21:21:40.949Z,5.80
2018-11-02T21:24:09.369Z,5.50
2018-11-02T21:26:38.050Z,8.20
2018-11-02T21:29:06.441Z,5.60
2018-11-02T21:31:35.524Z,7.63
2018-11-02T21:34:04.058Z,9.53
2018-11-02T21:36:32.480Z,7.77
2018-11-02T21:39:01.293Z,4.80
2018-11-02T21:41:29.856Z,6.30
2018-11-02T21:43:58.350Z,4.63
2018-11-02T21:46:26.954Z,6.30
2018-11-02T21:48:55.533Z,8.97
2018-11-02T21:51:23.970Z,7.27
2018-11-02T21:53:52.564Z,7.80
2018-11-02T21:56:21.693Z,7.77
2018-11-02T21:58:50.037Z,8.40
2018-11-02T22:01:18.793Z,5.67
2018-11-02T22:03:47.262Z,8.67
2018-11-02T22:06:15.696Z,4.90
2018-11-02T22:08:44.339Z,4.13
2018-11-02T22:11:12.803Z,5.47
2018-11-02T22:13:41.253Z,4.80
2018-11-02T22:16:09.869Z,4.90
2018-11-02T22:18:38.262Z,9.43
2018-11-02T22:21:06.703Z,6.43
2018-11-02T22:23:35.396Z,6.03
2018-11-02T22:26:03.931Z,6.10
2018-11-02T22:28:32.307Z,6.87
2018-11-02T22:31:01.241Z,5.70
2018-11-02T22:33:29.864Z,4.13
2018-11-02T22:35:58.290Z,8.07
2018-11-02T22:38:27.046Z,6.90
2018-11-02T22:40:55.602Z,5.90
2018-11-02T22:43:24.090Z,6.50
2018-11-02T22:45:52.524Z,7.10
2018-11-02T22:48:25.064Z,6.30
2018-11-02T22:50:55.072Z,6.93
2018-11-02T22:53:23.463Z,8.13
2018-11-02T22:55:52.186Z,9.30
2018-11-02T22:58:20.757Z,8.93
2018-11-02T23:00:54.404Z,6.03
2018-11-02T23:03:23.090Z,7.23
2018-11-02T23:05:51.511Z,7.17
2018-11-02T23:08:19.940Z,5.33
2018-11-02T23:10:48.522Z,7.47
2018-11-02T23:13:16.972Z,6.77
2018-11-02T23:15:45.410Z,6.83
2018-11-02T23:18:14.213Z,7.17
2018-11-02T23:20:42.612Z,6.03
2018-11-02T23:23:11.038Z,5.63
2018-11-02T23:25:40.119Z,5.93
2018-11-02T23:28:08.505Z,7.33
2018-11-02T23:30:36.876Z,5.63
2018-11-02T23:33:05.524Z,8.50
2018-11-02T23:35:33.918Z,6.83
2018-11-02T23:38:02.504Z,7.10
2018-11-02T23:40:31.324Z,6.40
2018-11-02T23:42:59.792Z,7.07
2018-11-02T23:45:28.272Z,6.07
2018-11-02T23:47:56.999Z,12.70
2018-11-02T23:50:25.351Z,9.30
2018-11-02T23:52:53.694Z,8.43
2018-11-02T23:55:22.378Z,10.47
2018-11-02T23:57:50.745Z,13.87
